Latest Weather Observations for Fortescue Dave Forrest

IDW60801

Issued at 10:35 pm WST Sunday 23 November 2014 (issued every 30 minutes, with the page automatically refreshed every 10 minutes)

About weather observations | Map of weather stations | Latest weather observations for WA | Other Formats
Station Details ID: 505056 Name: FORTESCUE DAVE FORREST Lat: -22.29 Lon: 119.43 Height: 474.6 m
Data from the previous 72 hours. | See also: Recent months for locations in Western Australia
Date/Time
WST
Temp
°C
App
Temp
°C
Dew
Point
Rel
Hum
%
Delta-T
°C
Wind Press
QNH
hPa
Press
MSL
hPa
Rain
since 9 am
mm
Dir
 
Spd
km/h
Gust
km/h
Spd
kts
Gust
kts
23/10:30pm 32.6 30.1 8.4 22 13.8 WSW 11 17 6 9 1012.2 1008.7 0.0
23/10:00pm 32.9 29.0 8.5 22 13.9 WNW 19 26 10 14 1012.0 1008.5 0.0
23/09:30pm 33.1 28.9 8.3 21 14.1 NW 20 28 11 15 1011.7 1008.2 0.0
23/09:00pm 33.8 29.5 7.7 20 14.8 NW 20 28 11 15 1011.4 1007.9 0.0
23/08:30pm 33.2 30.7 6.6 19 14.8 NW 9 13 5 7 1011.3 1007.8 0.0
23/08:00pm 34.8 31.5 6.3 17 15.9 NW 13 19 7 10 1010.9 1007.5 0.0
23/07:30pm 35.8 32.8 6.0 16 16.6 W 11 20 6 11 1010.6 1007.1 0.0
23/07:00pm 36.2 29.9 5.9 15 16.9 W 28 43 15 23 1010.2 1006.7 0.0
23/06:52pm 35.7 28.7 6.2 16 16.5 W 32 43 17 23 1010.1 1006.6 0.0
23/06:30pm 36.1 32.0 6.1 15 16.8 NW 17 24 9 13 1009.9 1006.4 0.0
23/06:00pm 36.7 32.5 5.7 15 17.3 NW 17 24 9 13 1009.6 1006.1 0.0
23/05:30pm 37.6 33.4 5.6 14 17.9 NNW 17 24 9 13 1009.3 1005.8 0.0
23/05:00pm 38.1 33.4 6.0 14 18.1 NW 20 33 11 18 1009.2 1005.7 0.0
23/04:30pm 37.6 33.4 5.8 14 17.8 NW 17 28 9 15 1008.9 1005.4 0.0
23/04:00pm 38.2 33.6 6.5 14 18.0 NW 20 28 11 15 1009.1 1005.6 0.0
23/03:30pm 37.8 32.9 7.1 15 17.5 W 22 32 12 17 1009.3 1005.8 0.0
23/03:00pm 38.1 34.3 7.5 15 17.6 NW 17 26 9 14 1009.6 1006.1 0.0
23/02:30pm 37.4 32.8 8.3 17 16.9 W 22 32 12 17 1009.9 1006.4 0.0
23/02:00pm 38.2 34.8 7.8 15 17.6 WNW 15 33 8 18 1010.2 1006.7 0.0
23/01:30pm 38.0 32.8 7.2 15 17.6 WNW 24 30 13 16 1010.6 1007.1 0.0
23/01:00pm 35.6 33.5 5.8 16 16.5 SW 6 11 3 6 1010.9 1007.5 0.0
23/12:30pm 35.0 30.4 3.5 14 16.8 W 17 24 9 13 1011.4 1007.9 0.0
23/12:00pm 35.9 29.2 1.6 11 17.9 W 26 35 14 19 1011.8 1008.3 0.0
23/11:30am 36.2 31.3 2.1 12 17.9 W 17 33 9 18 1012.1 1008.6 0.0
23/11:00am 35.6 32.2 2.0 12 17.6 WNW 9 19 5 10 1012.4 1008.9 0.0
23/10:30am 36.0 33.3 2.7 12 17.6 WNW 6 17 3 9 1012.6 1009.1 0.0
23/10:00am 34.6 31.2 2.1 13 16.9 SSW 9 19 5 10 1012.8 1009.3 0.0
23/09:30am 33.9 30.5 1.7 13 16.6 S 9 19 5 10 1013.0 1009.6 0.0
23/09:00am 34.4 30.3 2.1 13 16.8 SE 13 24 7 13 1013.1 1009.7 0.0
23/08:30am 33.4 28.4 1.6 13 16.3 SSE 17 24 9 13 1013.1 1009.7 0.0
23/08:00am 32.4 27.1 1.6 14 15.7 S 19 24 10 13 1012.9 1009.5 0.0
23/07:30am 31.7 26.8 1.8 15 15.2 S 17 24 9 13 1012.7 1009.2 0.0
23/07:00am 30.4 25.7 3.4 18 14.0 S 17 22 9 12 1012.5 1009.0 0.0
23/06:30am 29.5 27.5 6.4 23 12.5 S 6 11 3 6 1012.3 1008.8 0.0
23/06:00am 27.5 25.5 7.1 27 11.1 S 7 7 4 4 1011.9 1008.4 0.0
23/05:30am 26.7 25.9 8.1 30 10.2 SSW 2 6 1 3 1011.5 1008.0 0.0
23/05:00am 27.4 26.7 8.6 30 10.5 W 2 4 1 2 1011.0 1007.6 0.0
23/04:30am 27.4 26.5 9.3 32 10.2 W 4 6 2 3 1010.7 1007.2 0.0
23/04:00am 28.3 27.6 8.5 28 11.1 WNW 2 4 1 2 1010.6 1007.1 0.0
23/03:30am 28.9 27.3 8.6 28 11.4 W 7 11 4 6 1010.5 1007.0 0.0
23/03:00am 28.8 27.4 8.8 28 11.3 W 6 11 3 6 1010.4 1006.9 0.0
23/02:30am 28.3 27.0 9.1 30 10.8 NW 6 11 3 6 1010.4 1006.9 0.0
23/02:00am 27.8 27.3 9.2 31 10.5 N 2 6 1 3 1010.3 1006.8 0.0
23/01:30am 28.6 27.0 8.8 29 11.1 NNW 7 13 4 7 1010.3 1006.8 0.0
23/01:00am 29.3 26.5 8.7 27 11.6 WNW 13 20 7 11 1010.3 1006.8 0.0
23/12:30am 29.2 26.5 9.1 28 11.4 WNW 13 17 7 9 1010.7 1007.2 0.0
23/12:00am 29.5 26.5 9.1 28 11.6 WNW 15 19 8 10 1011.0 1007.6 0.0
 
Date/Time
WST
Temp
°C
App
Temp
°C
Dew
Point
Rel
Hum
%
Delta-T
°C
Wind Press
QNH
hPa
Press
MSL
hPa
Rain
since 9 am
mm
Dir
 
Spd
km/h
Gust
km/h
Spd
kts
Gust
kts
22/11:30pm 30.2 27.1 9.0 26 12.0 WNW 15 20 8 11 1011.3 1007.8 0.0
22/11:00pm 31.1 27.6 8.8 25 12.7 WNW 17 24 9 13 1011.6 1008.1 0.0
22/10:30pm 31.6 27.2 9.0 24 12.9 NW 22 32 12 17 1011.4 1007.9 0.0
22/10:00pm 32.0 26.9 7.7 22 13.7 NW 24 35 13 19 1011.4 1007.9 0.0
22/09:30pm 32.4 26.5 3.8 16 15.1 NNW 24 35 13 19 1011.5 1008.0 0.0
22/09:00pm 32.8 26.2 4.3 16 15.2 NNW 28 39 15 21 1011.3 1007.8 0.0
22/08:30pm 33.0 26.1 4.7 17 15.2 NNW 30 41 16 22 1011.1 1007.7 0.0
22/08:00pm 33.4 26.4 6.0 18 15.1 NNW 32 43 17 23 1010.8 1007.3 0.0
22/07:30pm 33.6 26.7 6.6 18 15.0 N 32 44 17 24 1010.5 1007.0 0.0
22/07:00pm 34.5 28.0 4.5 15 16.2 N 28 43 15 23 1010.1 1006.6 0.0
22/06:30pm 35.9 28.9 1.8 12 17.8 NNW 28 37 15 20 1009.8 1006.3 0.0
22/06:00pm 36.7 29.6 1.5 11 18.4 NNW 28 37 15 20 1009.5 1006.0 0.0
22/05:30pm 37.3 30.9 1.1 10 18.8 NNW 24 33 13 18 1009.4 1005.9 0.0
22/05:00pm 38.7 32.4 1.4 10 19.7 NNW 24 33 13 18 1009.2 1005.7 0.0
22/04:49pm 38.8 31.7 1.3 9 19.7 NNW 28 50 15 27 1009.1 1005.6 0.0
22/04:30pm 38.9 31.4 1.0 9 19.9 NW 30 41 16 22 1009.1 1005.6 0.0
22/04:00pm 38.9 32.2 1.2 9 19.9 NNW 26 41 14 22 1008.9 1005.4 0.0
22/03:41pm 39.1 31.9 0.8 9 20.0 WNW 28 46 15 25 1009.2 1005.7 0.0
22/03:30pm 38.6 31.6 1.8 10 19.5 N 28 39 15 21 1009.2 1005.7 0.0
22/03:00pm 39.8 35.2 1.6 9 20.3 N 15 28 8 15 1009.5 1006.0 0.0
22/02:30pm 38.7 35.1 0.9 9 19.8 NW 9 20 5 11 1009.8 1006.3 0.0
22/02:00pm 39.1 31.9 0.9 9 20.0 NW 28 44 15 24 1009.9 1006.4 0.0
22/01:30pm 39.1 33.4 0.8 9 20.0 NW 20 43 11 23 1010.4 1006.9 0.0
22/01:00pm 38.2 31.6 -0.1 9 19.7 WNW 24 32 13 17 1010.8 1007.3 0.0
22/12:30pm 39.1 33.6 0.8 9 20.0 NW 19 35 10 19 1010.9 1007.5 0.0
22/12:00pm 36.8 31.5 -0.3 9 18.9 NNW 17 30 9 16 1011.3 1007.8 0.0
22/11:30am 38.0 32.5 0.7 9 19.4 WNW 19 22 10 12 1011.8 1008.3 0.0
22/11:00am 36.3 32.0 1.3 11 18.2 W 13 26 7 14 1012.2 1008.7 0.0
22/10:30am 35.6 32.1 1.5 11 17.7 WNW 9 17 5 9 1012.5 1009.0 0.0
22/10:00am 34.7 31.0 0.2 11 17.4 S 9 17 5 9 1012.7 1009.2 0.0
22/09:30am 34.4 30.7 -0.2 11 17.3 ESE 9 26 5 14 1012.8 1009.3 0.0
22/09:00am 33.7 29.1 -0.8 11 17.0 SE 13 19 7 10 1012.9 1009.5 0.0
22/08:30am 33.0 28.8 -1.2 11 16.7 SSE 11 20 6 11 1012.9 1009.5 0.0
22/08:00am 32.2 27.2 -0.9 12 16.2 SSE 15 22 8 12 1012.8 1009.3 0.0
22/07:30am 30.9 25.5 -1.0 12 15.4 S 17 22 9 12 1012.7 1009.2 0.0
22/07:00am 29.7 25.1 -0.9 13 14.7 S 13 19 7 10 1012.6 1009.1 0.0
22/06:30am 28.6 23.8 0.3 16 13.8 S 15 20 8 11 1012.4 1008.9 0.0
22/06:00am 27.3 23.0 1.2 18 12.8 S 13 19 7 10 1012.1 1008.6 0.0
22/05:30am 25.5 21.8 2.3 22 11.4 S 11 15 6 8 1011.7 1008.2 0.0
22/05:00am 25.6 22.0 3.2 23 11.3 S 11 15 6 8 1011.4 1007.9 0.0
22/04:30am 26.1 22.9 3.3 23 11.5 S 9 13 5 7 1011.1 1007.7 0.0
22/04:00am 26.5 23.9 6.0 27 10.9 S 9 11 5 6 1010.8 1007.3 0.0
22/03:30am 26.9 24.5 7.0 28 10.8 SSW 9 9 5 5 1010.5 1007.0 0.0
22/03:00am 26.8 24.9 7.7 29 10.5 SW 7 9 4 5 1010.3 1006.8 0.0
22/02:30am 27.3 25.7 8.7 31 10.4 SW 7 7 4 4 1010.4 1006.9 0.0
22/02:00am 25.8 24.7 9.8 36 9.0 W 6 7 3 4 1010.4 1006.9 0.0
22/01:30am 26.2 25.1 9.9 35 9.2 W 6 7 3 4 1010.4 1006.9 0.0
22/01:00am 27.6 26.8 9.6 32 10.2 WSW 4 6 2 3 1010.6 1007.1 0.0
22/12:30am 28.3 26.2 9.6 31 10.6 WNW 11 17 6 9 1010.7 1007.2 0.0
22/12:00am 28.8 26.3 9.6 30 11.0 WNW 13 17 7 9 1010.8 1007.3 0.0
 
Date/Time
WST
Temp
°C
App
Temp
°C
Dew
Point
Rel
Hum
%
Delta-T
°C
Wind Press
QNH
hPa
Press
MSL
hPa
Rain
since 9 am
mm
Dir
 
Spd
km/h
Gust
km/h
Spd
kts
Gust
kts
21/11:30pm 29.4 26.9 9.6 29 11.3 WNW 13 22 7 12 1011.1 1007.7 0.0
21/11:00pm 29.9 27.0 9.8 28 11.6 WNW 15 24 8 13 1011.3 1007.8 0.0
21/10:30pm 30.7 27.8 9.8 27 12.1 WNW 15 20 8 11 1011.4 1007.9 0.0
21/10:00pm 31.7 28.8 9.6 25 12.8 W 15 20 8 11 1011.6 1008.1 0.0
21/09:30pm 32.4 28.1 9.2 24 13.4 W 22 30 12 16 1011.3 1007.8 0.0
21/09:00pm 33.1 27.2 8.9 22 13.9 NW 30 39 16 21 1010.5 1007.0 0.0
21/08:30pm 34.0 28.0 8.5 20 14.6 NW 30 41 16 22 1010.3 1006.8 0.0
21/08:04pm 35.2 29.1 6.8 17 16.0 NW 28 48 15 26 1010.0 1006.5 0.0
21/08:00pm 35.4 30.4 4.8 15 16.7 NW 20 39 11 21 1009.9 1006.4 0.0
21/07:30pm 36.0 31.2 4.5 14 17.2 NW 19 24 10 13 1009.7 1006.2 0.0
21/07:00pm 36.6 31.6 4.7 14 17.5 NNW 20 28 11 15 1009.4 1005.9 0.0
21/06:30pm 37.4 32.1 5.1 13 17.9 NW 22 32 12 17 1009.1 1005.6 0.0
21/06:00pm 38.1 32.1 5.4 13 18.3 N 26 37 14 20 1008.6 1005.1 0.0
21/05:30pm 38.8 34.0 5.7 13 18.6 NNW 20 30 11 16 1008.4 1004.9 0.0
21/05:00pm 39.4 33.8 5.4 12 19.1 WNW 24 33 13 18 1008.3 1004.8 0.0
21/04:30pm 39.4 35.0 5.0 12 19.2 NW 17 37 9 20 1008.3 1004.8 0.0
21/04:00pm 39.9 35.6 5.1 12 19.5 NW 17 35 9 19 1008.3 1004.8 0.0
21/03:30pm 39.3 34.5 4.6 12 19.2 WNW 19 35 10 19 1008.6 1005.1 0.0
21/03:00pm 39.9 33.4 4.5 11 19.7 WNW 28 43 15 23 1008.8 1005.3 0.0
21/02:30pm 40.3 34.6 4.7 11 19.9 NW 24 41 13 22 1009.3 1005.8 0.0
21/02:00pm 39.9 32.7 4.8 11 19.6 NW 32 43 17 23 1009.8 1006.3 0.0
21/01:30pm 39.7 33.3 5.0 12 19.4 NW 28 39 15 21 1010.2 1006.7 0.0
21/01:00pm 38.9 33.9 4.8 12 19.0 NW 20 30 11 16 1010.6 1007.1 0.0
21/12:30pm 38.8 33.7 4.3 12 19.0 WNW 20 30 11 16 1011.0 1007.6 0.0
21/12:00pm 38.0 33.0 3.7 12 18.7 WSW 19 26 10 14 1011.5 1008.0 0.0
21/11:30am 37.0 33.8 3.2 12 18.1 WNW 9 22 5 12 1012.1 1008.6 0.0
21/11:00am 36.4 33.1 2.4 12 18.0 SSW 9 19 5 10 1012.6 1009.1 0.0
21/10:30am 36.4 33.5 2.7 12 17.9 SW 7 20 4 11 1012.9 1009.5 0.0
21/10:00am 35.2 31.0 1.5 12 17.4 SSW 13 22 7 12 1013.2 1009.8 0.0
21/09:30am 34.5 31.0 1.3 12 17.0 S 9 17 5 9 1013.3 1009.9 0.0
21/09:00am 34.4 30.7 2.2 13 16.8 SSE 11 22 6 12 1013.5 1010.0 -
21/08:30am 34.0 29.9 2.4 13 16.5 S 13 22 7 12 1013.5 1010.0 -
21/08:00am 32.3 27.4 1.9 14 15.6 S 17 26 9 14 1013.3 1009.9 -
21/07:30am 31.0 25.7 1.7 15 14.8 S 19 26 10 14 1013.2 1009.8 -
21/07:00am 30.0 26.2 1.6 16 14.3 S 11 17 6 9 1013.0 1009.6 -
21/06:30am 28.6 26.1 3.5 20 12.9 S 6 9 3 5 1012.8 1009.3 -
21/06:00am 26.5 24.2 4.9 25 11.2 SSW 6 7 3 4 1012.5 1009.0 -
21/05:30am 24.8 22.3 4.6 27 10.3 SW 7 9 4 5 1012.2 1008.7 -
21/05:00am 25.5 22.9 4.3 25 10.9 SW 7 9 4 5 1012.1 1008.6 -
21/04:30am 26.2 23.7 5.0 25 11.0 SW 7 9 4 5 1011.9 1008.4 -
21/04:00am 25.5 23.9 6.5 29 10.1 WSW 4 6 2 3 1011.7 1008.2 -
21/03:30am 26.0 24.1 6.7 29 10.3 WSW 6 7 3 4 1011.5 1008.0 -
21/03:00am 27.1 25.3 7.2 28 10.8 WSW 6 9 3 5 1011.4 1007.9 0.0
21/02:30am 27.6 25.4 7.7 28 10.9 W 9 13 5 7 1011.3 1007.8 -
21/02:00am 28.0 25.1 8.1 28 11.0 W 13 17 7 9 1011.1 1007.7 -
21/01:30am 28.0 24.8 8.3 29 11.0 WNW 15 20 8 11 1011.4 1007.9 -
21/01:00am 27.8 25.0 8.5 29 10.8 WNW 13 17 7 9 1011.5 1008.0 -
21/12:30am 28.3 25.1 8.6 29 11.0 WNW 15 19 8 10 1011.7 1008.2 -
21/12:00am 28.9 25.3 8.5 27 11.4 WNW 17 20 9 11 1011.8 1008.3 -
 
Date/Time
WST
Temp
°C
App
Temp
°C
Dew
Point
Rel
Hum
%
Delta-T
°C
Wind Press
QNH
hPa
Press
MSL
hPa
Rain
since 9 am
mm
Dir
 
Spd
km/h
Gust
km/h
Spd
kts
Gust
kts
20/11:30pm 29.5 25.6 8.5 27 11.8 WNW 19 24 10 13 1012.0 1008.5 -
20/11:00pm 30.2 26.0 8.4 25 12.3 WNW 20 28 11 15 1012.1 1008.6 -

Other Formats:

Comma delimited format used in spreadsheet applications
http://www.bom.gov.au/fwo/IDW60801/IDW60801.99736.axf

JavaScript Object Notation format (JSON) in row-major order
http://www.bom.gov.au/fwo/IDW60801/IDW60801.99736.json